createdAt,value
2022-11-29T00:02:29.530Z,45.45
2022-11-29T00:05:35.807Z,44.86
2022-11-29T00:08:42.273Z,44.84
2022-11-29T00:12:03.254Z,45.27
2022-11-29T00:15:08.060Z,44.85
2022-11-29T00:18:11.778Z,44.81
2022-11-29T00:21:15.238Z,44.93
2022-11-29T00:24:20.327Z,44.74
2022-11-29T00:27:23.862Z,44.51
2022-11-29T00:30:27.347Z,44.80
2022-11-29T00:33:31.358Z,44.92
2022-11-29T00:36:36.495Z,44.53
2022-11-29T00:39:41.791Z,44.45
2022-11-29T00:42:45.367Z,44.25
2022-11-29T00:45:49.115Z,44.49
2022-11-29T00:48:52.669Z,44.32
2022-11-29T00:51:56.086Z,44.25
2022-11-29T00:55:00.677Z,43.85
2022-11-29T00:58:04.253Z,44.31
2022-11-29T01:01:07.797Z,44.16
2022-11-29T01:04:11.382Z,44.04
2022-11-29T01:07:14.779Z,44.39
2022-11-29T01:10:19.944Z,44.12
2022-11-29T01:13:23.697Z,43.91
2022-11-29T01:16:28.442Z,43.83
2022-11-29T01:19:32.237Z,44.12
2022-11-29T01:22:36.250Z,43.68
2022-11-29T01:25:41.017Z,43.71
2022-11-29T01:28:48.432Z,43.71
2022-11-29T01:31:51.999Z,43.92
2022-11-29T01:34:55.468Z,43.43
2022-11-29T01:37:59.140Z,43.55
2022-11-29T01:41:07.631Z,43.64
2022-11-29T01:45:01.408Z,43.69
2022-11-29T01:48:05.702Z,43.45
2022-11-29T01:51:09.397Z,43.54
2022-11-29T01:54:14.943Z,43.10
2022-11-29T01:57:21.657Z,43.67
2022-11-29T02:00:25.370Z,43.67
2022-11-29T02:03:29.190Z,43.35
2022-11-29T02:06:33.686Z,43.36
2022-11-29T02:09:37.207Z,43.44
2022-11-29T02:13:01.347Z,43.38
2022-11-29T02:16:14.291Z,43.32
2022-11-29T02:20:06.747Z,43.18
2022-11-29T02:23:52.342Z,43.22
2022-11-29T02:28:04.476Z,43.61
2022-11-29T02:31:53.731Z,43.42
2022-11-29T02:35:18.668Z,43.60
2022-11-29T02:38:54.525Z,43.40
2022-11-29T02:42:55.776Z,43.37
2022-11-29T02:46:25.697Z,43.49
2022-11-29T02:49:59.206Z,43.34
2022-11-29T02:53:16.920Z,43.19
2022-11-29T02:56:30.395Z,43.22
2022-11-29T02:59:51.581Z,43.37
2022-11-29T03:03:08.332Z,43.38
2022-11-29T03:06:28.142Z,43.56
2022-11-29T03:09:45.154Z,43.65
2022-11-29T03:12:52.158Z,44.11
2022-11-29T03:16:07.332Z,43.61
2022-11-29T03:19:36.302Z,43.24
2022-11-29T03:22:53.236Z,43.68
2022-11-29T03:26:08.597Z,43.43
2022-11-29T03:29:24.625Z,43.91
2022-11-29T03:32:39.722Z,43.99
2022-11-29T03:35:52.726Z,43.74
2022-11-29T03:39:05.369Z,43.92
2022-11-29T03:42:18.816Z,43.61
2022-11-29T03:45:33.774Z,43.40
2022-11-29T03:48:45.320Z,43.72
2022-11-29T03:52:02.131Z,43.80
2022-11-29T03:55:27.776Z,43.72
2022-11-29T03:58:53.204Z,43.32
2022-11-29T04:02:50.173Z,43.71
2022-11-29T04:06:21.529Z,43.73
2022-11-29T04:09:45.472Z,43.35
2022-11-29T04:13:36.974Z,43.67
2022-11-29T04:17:40.615Z,43.52
2022-11-29T04:21:14.596Z,43.53
2022-11-29T04:25:14.211Z,43.45
2022-11-29T04:29:07.073Z,43.33
2022-11-29T04:33:05.217Z,43.41
2022-11-29T04:36:46.499Z,43.58
2022-11-29T04:40:21.684Z,43.55
2022-11-29T04:43:55.514Z,43.48
2022-11-29T04:47:27.576Z,43.55
2022-11-29T04:50:54.466Z,43.41
2022-11-29T04:54:10.418Z,43.10
2022-11-29T04:57:30.510Z,43.19
2022-11-29T05:00:46.582Z,43.23
2022-11-29T05:04:02.982Z,43.33
2022-11-29T05:07:18.648Z,43.23
2022-11-29T05:10:35.416Z,43.07
2022-11-29T05:13:50.935Z,42.81
2022-11-29T05:17:30.378Z,43.12
2022-11-29T05:20:47.989Z,43.25
2022-11-29T05:24:06.554Z,42.81
2022-11-29T05:27:24.358Z,42.69
2022-11-29T05:30:45.832Z,42.78
2022-11-29T05:34:44.888Z,42.91
2022-11-29T05:37:54.052Z,42.55
2022-11-29T05:41:18.826Z,42.74
2022-11-29T05:44:34.216Z,42.44
2022-11-29T05:47:51.056Z,42.74
2022-11-29T05:51:12.380Z,42.43
2022-11-29T05:54:32.315Z,42.56
2022-11-29T05:57:48.042Z,42.23
2022-11-29T06:01:03.729Z,42.41
2022-11-29T06:04:18.621Z,42.23
2022-11-29T06:07:35.465Z,42.35
2022-11-29T06:10:45.901Z,42.38
2022-11-29T06:14:09.619Z,42.18
2022-11-29T06:17:55.276Z,41.97
2022-11-29T06:21:19.523Z,42.47
2022-11-29T06:24:56.343Z,42.14
2022-11-29T06:28:27.926Z,42.03
2022-11-29T06:31:38.849Z,41.80
2022-11-29T06:34:55.111Z,41.66
2022-11-29T06:38:02.533Z,41.59
2022-11-29T06:41:07.011Z,41.51
2022-11-29T06:44:13.182Z,41.16
2022-11-29T06:47:28.212Z,41.14
2022-11-29T06:50:41.933Z,41.07
2022-11-29T06:53:58.159Z,41.29
2022-11-29T06:57:18.161Z,41.86
2022-11-29T07:00:27.239Z,42.13
2022-11-29T07:04:26.329Z,42.00
2022-11-29T07:07:31.329Z,42.09
2022-11-29T07:10:39.590Z,42.65
2022-11-29T07:13:44.053Z,42.38
2022-11-29T07:17:02.775Z,42.57
2022-11-29T07:20:21.960Z,42.91
2022-11-29T07:23:35.988Z,43.46
2022-11-29T07:26:58.045Z,43.67
2022-11-29T07:30:16.020Z,43.77
2022-11-29T07:33:33.456Z,43.71
2022-11-29T07:36:50.712Z,44.10
2022-11-29T07:40:05.611Z,44.41
2022-11-29T07:43:29.180Z,44.63
2022-11-29T07:46:32.737Z,45.48
2022-11-29T07:49:37.631Z,45.34
2022-11-29T07:52:41.841Z,45.81
2022-11-29T07:55:46.819Z,45.67
2022-11-29T07:58:50.737Z,45.12
2022-11-29T08:01:54.536Z,45.45
2022-11-29T08:05:01.735Z,45.15
2022-11-29T08:08:05.513Z,44.95
2022-11-29T08:11:12.543Z,45.03
2022-11-29T08:14:16.219Z,44.83
2022-11-29T08:17:19.761Z,44.66
2022-11-29T08:20:25.004Z,44.46
2022-11-29T08:23:28.561Z,44.35
2022-11-29T08:26:32.245Z,43.82
2022-11-29T08:29:35.868Z,43.94
2022-11-29T08:32:39.348Z,43.86
2022-11-29T08:35:44.243Z,43.76
2022-11-29T08:38:48.712Z,43.32
2022-11-29T08:41:52.263Z,43.63
2022-11-29T08:44:55.766Z,43.36
2022-11-29T08:47:59.334Z,43.79
2022-11-29T08:51:05.788Z,43.53
2022-11-29T08:54:09.380Z,43.32
2022-11-29T09:00:37.338Z,43.29
2022-11-29T09:03:58.855Z,43.25
2022-11-29T09:07:03.726Z,43.58
2022-11-29T09:10:09.270Z,43.28
2022-11-29T09:13:13.543Z,42.91
2022-11-29T09:16:20.702Z,43.02
2022-11-29T09:19:24.266Z,42.99
2022-11-29T09:22:29.362Z,43.09
2022-11-29T09:25:32.957Z,43.15
2022-11-29T09:28:37.050Z,43.00
2022-11-29T09:31:40.587Z,43.28
2022-11-29T09:34:44.421Z,42.92
2022-11-29T09:37:49.449Z,43.20
2022-11-29T09:40:57.344Z,43.44
2022-11-29T09:44:17.337Z,43.20
2022-11-29T09:47:41.316Z,42.77
2022-11-29T09:50:55.468Z,42.89
2022-11-29T09:54:25.356Z,41.46
2022-11-29T09:57:32.464Z,42.08
2022-11-29T10:00:47.175Z,41.84
2022-11-29T10:03:55.504Z,42.04
2022-11-29T10:07:08.021Z,41.88
2022-11-29T10:10:21.577Z,41.88
2022-11-29T10:13:32.051Z,42.17
2022-11-29T10:16:47.702Z,40.93
2022-11-29T10:19:58.941Z,40.77
2022-11-29T10:23:16.167Z,41.23
2022-11-29T10:26:22.929Z,41.76
2022-11-29T10:29:26.799Z,42.33
2022-11-29T10:32:33.293Z,42.82
2022-11-29T10:35:37.071Z,42.37
2022-11-29T10:38:40.628Z,43.14
2022-11-29T10:41:46.189Z,43.70
2022-11-29T10:44:49.944Z,43.59
2022-11-29T10:47:58.986Z,43.77
2022-11-29T10:51:03.584Z,42.02
2022-11-29T10:54:28.909Z,41.48
2022-11-29T10:57:34.809Z,42.91
2022-11-29T11:00:55.177Z,42.87
2022-11-29T11:04:03.228Z,43.20
2022-11-29T11:07:07.999Z,43.10
2022-11-29T11:10:26.813Z,43.63
2022-11-29T11:13:33.772Z,43.77
2022-11-29T11:16:37.932Z,43.74
2022-11-29T11:19:41.782Z,44.07
2022-11-29T11:22:45.529Z,43.49
2022-11-29T11:25:50.078Z,43.30
2022-11-29T11:29:00.295Z,42.83
2022-11-29T11:32:06.547Z,43.23
2022-11-29T11:35:24.624Z,43.32
2022-11-29T11:38:28.443Z,42.99
2022-11-29T11:41:54.585Z,43.36
2022-11-29T11:45:00.741Z,43.40
2022-11-29T11:48:14.763Z,43.63
2022-11-29T11:51:27.114Z,43.86
2022-11-29T11:54:31.909Z,43.34
2022-11-29T11:57:35.837Z,43.25
2022-11-29T12:04:18.173Z,43.51
2022-11-29T12:08:05.702Z,43.14
2022-11-29T12:11:07.505Z,43.14
2022-11-29T12:14:25.148Z,43.09
2022-11-29T12:17:37.822Z,43.30
2022-11-29T12:20:51.958Z,42.85
2022-11-29T12:24:05.428Z,43.28
2022-11-29T12:27:15.006Z,43.19
2022-11-29T12:30:19.644Z,43.10
2022-11-29T12:33:38.794Z,43.44
2022-11-29T12:36:55.947Z,43.35
2022-11-29T12:40:08.508Z,43.39
2022-11-29T12:43:31.592Z,43.04
2022-11-29T12:46:38.075Z,43.61
2022-11-29T12:50:01.648Z,43.33
2022-11-29T12:53:28.272Z,43.58
2022-11-29T12:56:40.631Z,43.49
2022-11-29T13:00:10.235Z,43.07
2022-11-29T13:03:28.005Z,43.37
2022-11-29T13:06:49.233Z,43.03
2022-11-29T13:10:35.539Z,42.94
2022-11-29T13:13:43.644Z,43.20
2022-11-29T13:16:59.183Z,43.19
2022-11-29T13:20:20.764Z,43.22
2022-11-29T13:24:07.371Z,42.91
2022-11-29T13:27:05.889Z,42.77
2022-11-29T13:30:15.735Z,43.04
2022-11-29T13:33:31.762Z,42.21
2022-11-29T13:36:54.177Z,42.24
2022-11-29T13:40:24.551Z,41.21
2022-11-29T13:43:39.588Z,40.67
2022-11-29T13:46:55.327Z,39.84
2022-11-29T13:50:02.460Z,39.68
2022-11-29T13:53:15.726Z,39.62
2022-11-29T13:56:43.117Z,39.30
2022-11-29T13:59:51.426Z,39.67
2022-11-29T14:02:56.538Z,39.65
2022-11-29T14:06:15.160Z,39.57
2022-11-29T14:09:29.574Z,39.93
2022-11-29T14:12:43.034Z,40.07
2022-11-29T14:15:59.835Z,40.26
2022-11-29T14:19:23.357Z,40.53
2022-11-29T14:22:26.969Z,40.51
2022-11-29T14:28:57.152Z,40.82
2022-11-29T14:32:01.331Z,40.33
2022-11-29T14:35:22.072Z,40.67
2022-11-29T14:38:36.212Z,40.82
2022-11-29T14:42:02.331Z,40.38
2022-11-29T14:45:27.163Z,40.14
2022-11-29T14:48:34.964Z,40.25
2022-11-29T14:51:38.844Z,39.79
2022-11-29T14:54:59.992Z,39.64
2022-11-29T14:58:23.151Z,39.38
2022-11-29T15:01:28.130Z,39.19
2022-11-29T15:04:36.072Z,39.08
2022-11-29T15:07:47.713Z,38.63
2022-11-29T15:10:58.438Z,38.46
2022-11-29T15:14:08.458Z,38.37
2022-11-29T15:17:27.435Z,37.74
2022-11-29T15:20:55.989Z,37.83
2022-11-29T15:24:06.715Z,37.38
2022-11-29T15:27:14.200Z,37.38
2022-11-29T15:30:29.566Z,36.81
2022-11-29T15:33:38.380Z,34.94
2022-11-29T15:36:44.643Z,32.47
2022-11-29T15:39:48.084Z,31.29
2022-11-29T15:43:00.030Z,32.32
2022-11-29T15:46:03.959Z,35.08
2022-11-29T15:49:20.896Z,36.62
2022-11-29T15:52:33.814Z,37.26
2022-11-29T15:55:38.990Z,38.32
2022-11-29T15:58:44.562Z,37.90
2022-11-29T16:01:54.249Z,38.77
2022-11-29T16:05:05.839Z,38.68
2022-11-29T16:08:20.103Z,38.11
2022-11-29T16:11:28.778Z,38.51
2022-11-29T16:14:32.399Z,39.26
2022-11-29T16:17:37.029Z,42.27
2022-11-29T16:20:42.141Z,44.28
2022-11-29T16:23:48.498Z,45.83
2022-11-29T16:26:52.662Z,46.80
2022-11-29T16:29:56.226Z,48.36
2022-11-29T16:33:03.434Z,50.67
2022-11-29T16:36:16.082Z,53.32
2022-11-29T16:39:25.029Z,54.36
2022-11-29T16:42:34.135Z,54.38
2022-11-29T16:45:39.500Z,50.97
2022-11-29T16:48:43.028Z,49.35
2022-11-29T16:51:49.020Z,50.11
2022-11-29T16:54:52.742Z,50.61
2022-11-29T16:57:56.307Z,51.04
2022-11-29T17:00:59.821Z,50.98
2022-11-29T17:04:03.300Z,52.01
2022-11-29T17:07:15.299Z,52.73
2022-11-29T17:10:24.089Z,52.99
2022-11-29T17:13:27.867Z,53.19
2022-11-29T17:16:31.220Z,53.19
2022-11-29T17:19:34.663Z,53.23
2022-11-29T17:22:39.513Z,52.89
2022-11-29T17:25:42.992Z,52.50
2022-11-29T17:28:49.537Z,51.90
2022-11-29T17:31:53.503Z,51.90
2022-11-29T17:34:57.236Z,51.37
2022-11-29T17:38:01.997Z,51.38
2022-11-29T17:41:09.167Z,50.95
2022-11-29T17:44:12.942Z,50.48
2022-11-29T17:47:16.823Z,50.44
2022-11-29T17:50:20.411Z,50.26
2022-11-29T17:53:25.224Z,49.95
2022-11-29T17:56:29.921Z,50.72
2022-11-29T17:59:33.408Z,51.00
2022-11-29T18:02:36.916Z,51.34
2022-11-29T18:05:40.463Z,51.03
2022-11-29T18:08:48.124Z,51.56
2022-11-29T18:11:52.408Z,51.34
2022-11-29T18:14:55.818Z,52.10
2022-11-29T18:17:59.086Z,52.24
2022-11-29T18:21:05.263Z,52.42
2022-11-29T18:24:10.583Z,52.34
2022-11-29T18:27:14.039Z,52.90
2022-11-29T18:30:17.812Z,53.74
2022-11-29T18:33:22.041Z,53.95
2022-11-29T18:36:28.335Z,54.04
2022-11-29T18:39:33.257Z,53.57
2022-11-29T18:42:36.848Z,53.90
2022-11-29T18:45:40.667Z,53.49
2022-11-29T18:48:45.216Z,53.81
2022-11-29T18:51:50.952Z,53.74
2022-11-29T18:54:55.684Z,53.30
2022-11-29T18:57:59.140Z,53.26
2022-11-29T19:01:08.204Z,53.34
2022-11-29T19:04:15.736Z,53.12
2022-11-29T19:07:19.281Z,53.44
2022-11-29T19:10:24.072Z,53.12
2022-11-29T19:13:27.765Z,52.79
2022-11-29T19:16:33.894Z,52.43
2022-11-29T19:19:37.580Z,52.48
2022-11-29T19:22:40.967Z,52.28
2022-11-29T19:25:45.929Z,52.64
2022-11-29T19:28:49.796Z,52.45
2022-11-29T19:31:53.326Z,52.71
2022-11-29T19:34:57.331Z,52.84
2022-11-29T19:38:00.688Z,52.41
2022-11-29T19:41:10.647Z,52.21
2022-11-29T19:44:14.570Z,52.55
2022-11-29T19:47:17.995Z,52.48
2022-11-29T19:50:21.704Z,52.29
2022-11-29T19:53:25.334Z,52.38
2022-11-29T19:56:32.214Z,52.55
2022-11-29T19:59:35.667Z,52.32
2022-11-29T20:02:39.097Z,52.54
2022-11-29T20:05:42.714Z,52.53
2022-11-29T20:08:47.161Z,52.63
2022-11-29T20:11:52.134Z,52.14
2022-11-29T20:14:55.437Z,52.96
2022-11-29T20:17:58.875Z,49.02
2022-11-29T20:21:07.741Z,46.66
2022-11-29T20:24:12.880Z,45.17
2022-11-29T20:27:17.594Z,44.06
2022-11-29T20:30:21.272Z,43.03
2022-11-29T20:33:26.488Z,42.32
2022-11-29T20:36:47.611Z,41.64
2022-11-29T20:39:58.999Z,40.84
2022-11-29T20:43:18.907Z,40.07
2022-11-29T20:46:29.552Z,39.48
2022-11-29T20:49:38.184Z,39.25
2022-11-29T20:52:51.396Z,39.18
2022-11-29T20:55:55.248Z,38.61
2022-11-29T20:58:59.961Z,38.53
2022-11-29T21:02:03.610Z,37.90
2022-11-29T21:05:08.109Z,37.86
2022-11-29T21:08:12.117Z,37.28
2022-11-29T21:11:16.467Z,37.40
2022-11-29T21:14:23.347Z,36.88
2022-11-29T21:17:33.199Z,36.63
2022-11-29T21:20:42.384Z,36.51
2022-11-29T21:24:00.712Z,36.42
2022-11-29T21:27:06.192Z,36.14
2022-11-29T21:30:20.555Z,36.44
2022-11-29T21:33:24.751Z,36.21
2022-11-29T21:36:31.298Z,36.20
2022-11-29T21:39:35.863Z,36.02
2022-11-29T21:42:39.692Z,36.22
2022-11-29T21:45:47.678Z,36.23
2022-11-29T21:48:52.819Z,36.22
2022-11-29T21:51:57.539Z,36.29
2022-11-29T21:55:02.387Z,36.08
2022-11-29T21:58:06.062Z,36.00
2022-11-29T22:01:16.048Z,35.81
2022-11-29T22:04:19.997Z,35.88
2022-11-29T22:07:23.677Z,35.84
2022-11-29T22:10:27.978Z,35.95
2022-11-29T22:13:31.678Z,35.95
2022-11-29T22:16:36.613Z,35.88
2022-11-29T22:19:40.994Z,35.94
2022-11-29T22:22:45.271Z,36.17
2022-11-29T22:25:51.743Z,36.06
2022-11-29T22:28:55.338Z,35.99
2022-11-29T22:32:01.521Z,36.03
2022-11-29T22:35:05.989Z,35.85
2022-11-29T22:38:11.502Z,35.91
2022-11-29T22:41:16.644Z,36.19
2022-11-29T22:44:19.928Z,36.10
2022-11-29T22:47:24.845Z,36.01
2022-11-29T22:50:28.311Z,36.26
2022-11-29T22:53:31.960Z,35.94
2022-11-29T22:56:38.044Z,36.26
2022-11-29T22:59:41.643Z,36.50
2022-11-29T23:02:46.389Z,36.29
2022-11-29T23:05:50.411Z,36.37
2022-11-29T23:08:56.580Z,35.84
2022-11-29T23:12:00.058Z,35.94
2022-11-29T23:15:04.429Z,35.71
2022-11-29T23:18:09.331Z,35.48
2022-11-29T23:21:15.747Z,35.59
2022-11-29T23:24:19.551Z,35.55
2022-11-29T23:27:22.935Z,35.22
2022-11-29T23:30:27.034Z,34.96
2022-11-29T23:33:34.054Z,34.98
2022-11-29T23:36:37.517Z,35.00
2022-11-29T23:39:42.069Z,34.85
2022-11-29T23:42:52.259Z,34.77
2022-11-29T23:45:56.084Z,34.50
2022-11-29T23:49:01.151Z,34.59
2022-11-29T23:52:04.917Z,34.69
2022-11-29T23:55:10.310Z,35.05
2022-11-29T23:58:14.997Z,34.44
